sensor_id;sensor_type;location;lat;lon;timestamp;P1;durP1;ratioP1;P2;durP2;ratioP2
16330;SDS011;8275;48.206;16.340;2022-08-25T00:00:18;20.20;;;8.80;;
16330;SDS011;8275;48.206;16.340;2022-08-25T00:02:48;13.23;;;8.55;;
16330;SDS011;8275;48.206;16.340;2022-08-25T00:05:22;12.23;;;9.75;;
16330;SDS011;8275;48.206;16.340;2022-08-25T00:07:54;12.95;;;8.15;;
16330;SDS011;8275;48.206;16.340;2022-08-25T00:10:23;13.95;;;9.82;;
16330;SDS011;8275;48.206;16.340;2022-08-25T00:12:52;11.75;;;9.20;;
16330;SDS011;8275;48.206;16.340;2022-08-25T00:15:22;11.93;;;9.93;;
16330;SDS011;8275;48.206;16.340;2022-08-25T00:17:50;14.70;;;9.15;;
16330;SDS011;8275;48.206;16.340;2022-08-25T00:20:19;8.70;;;7.13;;
16330;SDS011;8275;48.206;16.340;2022-08-25T00:22:48;16.00;;;8.82;;
16330;SDS011;8275;48.206;16.340;2022-08-25T00:25:17;25.77;;;9.70;;
16330;SDS011;8275;48.206;16.340;2022-08-25T00:27:46;16.00;;;8.95;;
16330;SDS011;8275;48.206;16.340;2022-08-25T00:30:15;12.85;;;8.85;;
16330;SDS011;8275;48.206;16.340;2022-08-25T00:32:46;10.90;;;7.63;;
16330;SDS011;8275;48.206;16.340;2022-08-25T00:35:23;12.15;;;9.32;;
16330;SDS011;8275;48.206;16.340;2022-08-25T00:37:52;12.40;;;9.32;;
16330;SDS011;8275;48.206;16.340;2022-08-25T00:40:21;15.80;;;9.48;;
16330;SDS011;8275;48.206;16.340;2022-08-25T00:42:51;8.45;;;7.32;;
16330;SDS011;8275;48.206;16.340;2022-08-25T00:45:19;9.70;;;8.23;;
16330;SDS011;8275;48.206;16.340;2022-08-25T00:47:51;13.55;;;7.85;;
16330;SDS011;8275;48.206;16.340;2022-08-25T00:50:25;12.80;;;8.38;;
16330;SDS011;8275;48.206;16.340;2022-08-25T00:52:55;15.75;;;9.40;;
16330;SDS011;8275;48.206;16.340;2022-08-25T00:55:29;9.95;;;8.27;;
16330;SDS011;8275;48.206;16.340;2022-08-25T00:58:05;11.68;;;8.65;;
16330;SDS011;8275;48.206;16.340;2022-08-25T01:00:41;19.27;;;9.55;;
16330;SDS011;8275;48.206;16.340;2022-08-25T01:03:14;9.73;;;8.65;;
16330;SDS011;8275;48.206;16.340;2022-08-25T01:05:44;12.25;;;8.35;;
16330;SDS011;8275;48.206;16.340;2022-08-25T01:08:14;12.38;;;8.25;;
16330;SDS011;8275;48.206;16.340;2022-08-25T01:10:46;13.20;;;8.77;;
16330;SDS011;8275;48.206;16.340;2022-08-25T01:13:17;8.32;;;7.50;;
16330;SDS011;8275;48.206;16.340;2022-08-25T01:15:51;10.48;;;8.32;;
16330;SDS011;8275;48.206;16.340;2022-08-25T01:18:24;13.82;;;9.48;;
16330;SDS011;8275;48.206;16.340;2022-08-25T01:20:55;9.30;;;8.18;;
16330;SDS011;8275;48.206;16.340;2022-08-25T01:23:26;8.48;;;7.43;;
16330;SDS011;8275;48.206;16.340;2022-08-25T01:25:55;18.50;;;8.93;;
16330;SDS011;8275;48.206;16.340;2022-08-25T01:28:30;10.25;;;9.23;;
16330;SDS011;8275;48.206;16.340;2022-08-25T01:30:58;8.93;;;8.02;;
16330;SDS011;8275;48.206;16.340;2022-08-25T01:33:27;9.70;;;7.20;;
16330;SDS011;8275;48.206;16.340;2022-08-25T01:35:57;10.40;;;8.80;;
16330;SDS011;8275;48.206;16.340;2022-08-25T01:38:25;11.10;;;8.10;;
16330;SDS011;8275;48.206;16.340;2022-08-25T01:40:53;10.95;;;8.20;;
16330;SDS011;8275;48.206;16.340;2022-08-25T01:43:24;9.15;;;8.18;;
16330;SDS011;8275;48.206;16.340;2022-08-25T01:46:02;10.95;;;8.93;;
16330;SDS011;8275;48.206;16.340;2022-08-25T01:48:31;29.65;;;9.18;;
16330;SDS011;8275;48.206;16.340;2022-08-25T01:51:01;13.68;;;9.23;;
16330;SDS011;8275;48.206;16.340;2022-08-25T01:53:30;11.40;;;9.13;;
16330;SDS011;8275;48.206;16.340;2022-08-25T01:55:59;12.80;;;9.48;;
16330;SDS011;8275;48.206;16.340;2022-08-25T01:58:37;10.63;;;8.88;;
16330;SDS011;8275;48.206;16.340;2022-08-25T02:01:09;10.23;;;8.30;;
16330;SDS011;8275;48.206;16.340;2022-08-25T02:03:42;13.20;;;9.13;;
16330;SDS011;8275;48.206;16.340;2022-08-25T02:06:16;8.98;;;7.70;;
16330;SDS011;8275;48.206;16.340;2022-08-25T02:08:55;8.60;;;7.72;;
16330;SDS011;8275;48.206;16.340;2022-08-25T02:11:27;11.60;;;7.15;;
16330;SDS011;8275;48.206;16.340;2022-08-25T02:13:55;10.02;;;7.88;;
16330;SDS011;8275;48.206;16.340;2022-08-25T02:16:32;10.70;;;9.30;;
16330;SDS011;8275;48.206;16.340;2022-08-25T02:19:03;10.27;;;8.23;;
16330;SDS011;8275;48.206;16.340;2022-08-25T02:21:36;11.75;;;8.93;;
16330;SDS011;8275;48.206;16.340;2022-08-25T02:24:06;11.70;;;8.60;;
16330;SDS011;8275;48.206;16.340;2022-08-25T02:26:35;11.43;;;7.53;;
16330;SDS011;8275;48.206;16.340;2022-08-25T02:29:04;8.98;;;8.13;;
16330;SDS011;8275;48.206;16.340;2022-08-25T02:31:34;11.98;;;7.63;;
16330;SDS011;8275;48.206;16.340;2022-08-25T02:34:04;9.20;;;7.80;;
16330;SDS011;8275;48.206;16.340;2022-08-25T02:36:33;12.45;;;10.38;;
16330;SDS011;8275;48.206;16.340;2022-08-25T02:39:04;12.75;;;9.20;;
16330;SDS011;8275;48.206;16.340;2022-08-25T02:41:36;11.85;;;8.35;;
16330;SDS011;8275;48.206;16.340;2022-08-25T02:44:05;10.50;;;8.30;;
16330;SDS011;8275;48.206;16.340;2022-08-25T02:46:35;10.68;;;8.75;;
16330;SDS011;8275;48.206;16.340;2022-08-25T02:49:04;10.35;;;8.98;;
16330;SDS011;8275;48.206;16.340;2022-08-25T02:51:35;13.20;;;8.05;;
16330;SDS011;8275;48.206;16.340;2022-08-25T02:54:04;10.00;;;8.48;;
16330;SDS011;8275;48.206;16.340;2022-08-25T02:56:33;11.93;;;8.13;;
16330;SDS011;8275;48.206;16.340;2022-08-25T02:59:01;11.82;;;7.72;;
16330;SDS011;8275;48.206;16.340;2022-08-25T03:01:30;8.15;;;7.32;;
16330;SDS011;8275;48.206;16.340;2022-08-25T03:03:59;9.27;;;8.32;;
16330;SDS011;8275;48.206;16.340;2022-08-25T03:06:28;13.55;;;9.32;;
16330;SDS011;8275;48.206;16.340;2022-08-25T03:08:58;8.85;;;7.95;;
16330;SDS011;8275;48.206;16.340;2022-08-25T03:11:27;9.77;;;8.77;;
16330;SDS011;8275;48.206;16.340;2022-08-25T03:13:56;8.50;;;7.75;;
16330;SDS011;8275;48.206;16.340;2022-08-25T03:16:25;10.57;;;8.70;;
16330;SDS011;8275;48.206;16.340;2022-08-25T03:18:54;10.32;;;8.68;;
16330;SDS011;8275;48.206;16.340;2022-08-25T03:21:25;9.00;;;8.20;;
16330;SDS011;8275;48.206;16.340;2022-08-25T03:23:55;11.38;;;8.98;;
16330;SDS011;8275;48.206;16.340;2022-08-25T03:26:26;9.13;;;7.38;;
16330;SDS011;8275;48.206;16.340;2022-08-25T03:29:12;13.07;;;7.03;;
16330;SDS011;8275;48.206;16.340;2022-08-25T03:31:42;13.85;;;9.20;;
16330;SDS011;8275;48.206;16.340;2022-08-25T03:34:11;12.18;;;9.13;;
16330;SDS011;8275;48.206;16.340;2022-08-25T03:36:42;8.77;;;7.70;;
16330;SDS011;8275;48.206;16.340;2022-08-25T03:39:11;8.70;;;7.90;;
16330;SDS011;8275;48.206;16.340;2022-08-25T03:41:42;11.32;;;8.20;;
16330;SDS011;8275;48.206;16.340;2022-08-25T03:44:11;13.32;;;7.63;;
16330;SDS011;8275;48.206;16.340;2022-08-25T03:46:42;11.02;;;8.80;;
16330;SDS011;8275;48.206;16.340;2022-08-25T03:49:14;10.40;;;9.00;;
16330;SDS011;8275;48.206;16.340;2022-08-25T03:51:46;16.80;;;7.35;;
16330;SDS011;8275;48.206;16.340;2022-08-25T03:54:18;14.30;;;9.73;;
16330;SDS011;8275;48.206;16.340;2022-08-25T03:56:51;12.40;;;9.88;;
16330;SDS011;8275;48.206;16.340;2022-08-25T03:59:20;12.48;;;9.10;;
16330;SDS011;8275;48.206;16.340;2022-08-25T04:01:49;9.57;;;7.82;;
16330;SDS011;8275;48.206;16.340;2022-08-25T04:04:20;9.75;;;8.10;;
16330;SDS011;8275;48.206;16.340;2022-08-25T04:06:49;12.82;;;8.98;;
16330;SDS011;8275;48.206;16.340;2022-08-25T04:09:18;10.15;;;9.13;;
16330;SDS011;8275;48.206;16.340;2022-08-25T04:11:47;11.95;;;9.77;;
16330;SDS011;8275;48.206;16.340;2022-08-25T04:14:20;9.40;;;8.35;;
16330;SDS011;8275;48.206;16.340;2022-08-25T04:16:49;9.20;;;8.30;;
16330;SDS011;8275;48.206;16.340;2022-08-25T04:19:19;9.45;;;8.10;;
16330;SDS011;8275;48.206;16.340;2022-08-25T04:21:48;10.50;;;9.48;;
16330;SDS011;8275;48.206;16.340;2022-08-25T04:24:22;21.63;;;9.20;;
16330;SDS011;8275;48.206;16.340;2022-08-25T04:26:51;16.05;;;9.43;;
16330;SDS011;8275;48.206;16.340;2022-08-25T04:29:21;15.18;;;10.75;;
16330;SDS011;8275;48.206;16.340;2022-08-25T04:31:52;10.55;;;8.05;;
16330;SDS011;8275;48.206;16.340;2022-08-25T04:34:22;11.20;;;8.93;;
16330;SDS011;8275;48.206;16.340;2022-08-25T04:36:56;10.75;;;9.70;;
16330;SDS011;8275;48.206;16.340;2022-08-25T04:39:28;9.77;;;8.10;;
16330;SDS011;8275;48.206;16.340;2022-08-25T04:41:56;10.95;;;8.30;;
16330;SDS011;8275;48.206;16.340;2022-08-25T04:44:28;9.88;;;8.90;;
16330;SDS011;8275;48.206;16.340;2022-08-25T04:46:57;12.32;;;10.48;;
16330;SDS011;8275;48.206;16.340;2022-08-25T04:49:26;9.70;;;8.05;;
16330;SDS011;8275;48.206;16.340;2022-08-25T04:51:55;7.78;;;6.97;;
16330;SDS011;8275;48.206;16.340;2022-08-25T04:54:23;30.50;;;10.70;;
16330;SDS011;8275;48.206;16.340;2022-08-25T04:56:53;10.57;;;9.48;;
16330;SDS011;8275;48.206;16.340;2022-08-25T04:59:24;13.90;;;8.25;;
16330;SDS011;8275;48.206;16.340;2022-08-25T05:01:57;10.73;;;9.82;;
16330;SDS011;8275;48.206;16.340;2022-08-25T05:04:28;10.10;;;9.10;;
16330;SDS011;8275;48.206;16.340;2022-08-25T05:06:58;8.93;;;8.05;;
16330;SDS011;8275;48.206;16.340;2022-08-25T05:09:27;10.02;;;8.68;;
16330;SDS011;8275;48.206;16.340;2022-08-25T05:11:58;9.23;;;8.32;;
16330;SDS011;8275;48.206;16.340;2022-08-25T05:14:27;10.90;;;9.55;;
16330;SDS011;8275;48.206;16.340;2022-08-25T05:16:58;11.95;;;9.90;;
16330;SDS011;8275;48.206;16.340;2022-08-25T05:19:28;10.63;;;9.02;;
16330;SDS011;8275;48.206;16.340;2022-08-25T05:21:56;13.07;;;9.80;;
16330;SDS011;8275;48.206;16.340;2022-08-25T05:24:24;12.23;;;9.13;;
16330;SDS011;8275;48.206;16.340;2022-08-25T05:26:54;9.55;;;8.48;;
16330;SDS011;8275;48.206;16.340;2022-08-25T05:29:24;10.02;;;9.02;;
16330;SDS011;8275;48.206;16.340;2022-08-25T05:31:52;14.05;;;8.98;;
16330;SDS011;8275;48.206;16.340;2022-08-25T05:34:22;11.70;;;8.40;;
16330;SDS011;8275;48.206;16.340;2022-08-25T05:36:51;10.07;;;8.82;;
16330;SDS011;8275;48.206;16.340;2022-08-25T05:39:19;13.68;;;9.05;;
16330;SDS011;8275;48.206;16.340;2022-08-25T05:41:52;9.32;;;8.43;;
16330;SDS011;8275;48.206;16.340;2022-08-25T05:44:20;9.40;;;7.63;;
16330;SDS011;8275;48.206;16.340;2022-08-25T05:46:48;10.80;;;8.70;;
16330;SDS011;8275;48.206;16.340;2022-08-25T05:49:17;14.40;;;10.15;;
16330;SDS011;8275;48.206;16.340;2022-08-25T05:51:47;12.57;;;8.55;;
16330;SDS011;8275;48.206;16.340;2022-08-25T05:54:16;16.60;;;10.30;;
16330;SDS011;8275;48.206;16.340;2022-08-25T05:56:45;9.93;;;8.93;;
16330;SDS011;8275;48.206;16.340;2022-08-25T05:59:13;14.63;;;10.20;;
16330;SDS011;8275;48.206;16.340;2022-08-25T06:01:41;14.07;;;7.68;;
16330;SDS011;8275;48.206;16.340;2022-08-25T06:04:28;12.63;;;9.10;;
16330;SDS011;8275;48.206;16.340;2022-08-25T06:06:57;9.43;;;8.38;;
16330;SDS011;8275;48.206;16.340;2022-08-25T06:09:26;9.50;;;7.97;;
16330;SDS011;8275;48.206;16.340;2022-08-25T06:11:54;8.88;;;8.07;;
16330;SDS011;8275;48.206;16.340;2022-08-25T06:14:23;10.80;;;8.52;;
16330;SDS011;8275;48.206;16.340;2022-08-25T06:16:52;14.00;;;9.40;;
16330;SDS011;8275;48.206;16.340;2022-08-25T06:19:23;13.38;;;8.98;;
16330;SDS011;8275;48.206;16.340;2022-08-25T06:21:54;10.50;;;9.10;;
16330;SDS011;8275;48.206;16.340;2022-08-25T06:24:25;9.43;;;7.63;;
16330;SDS011;8275;48.206;16.340;2022-08-25T06:26:55;12.80;;;8.40;;
16330;SDS011;8275;48.206;16.340;2022-08-25T06:29:24;15.95;;;9.80;;
16330;SDS011;8275;48.206;16.340;2022-08-25T06:31:53;15.40;;;8.98;;
16330;SDS011;8275;48.206;16.340;2022-08-25T06:34:21;14.73;;;9.07;;
16330;SDS011;8275;48.206;16.340;2022-08-25T06:36:50;12.55;;;9.10;;
16330;SDS011;8275;48.206;16.340;2022-08-25T06:39:20;11.70;;;8.02;;
16330;SDS011;8275;48.206;16.340;2022-08-25T06:41:50;10.52;;;9.38;;
16330;SDS011;8275;48.206;16.340;2022-08-25T06:44:19;12.48;;;8.60;;
16330;SDS011;8275;48.206;16.340;2022-08-25T06:46:48;10.13;;;9.00;;
16330;SDS011;8275;48.206;16.340;2022-08-25T06:49:17;13.70;;;8.88;;
16330;SDS011;8275;48.206;16.340;2022-08-25T06:51:46;11.75;;;8.32;;
16330;SDS011;8275;48.206;16.340;2022-08-25T06:54:15;13.15;;;7.30;;
16330;SDS011;8275;48.206;16.340;2022-08-25T06:56:45;11.70;;;9.07;;
16330;SDS011;8275;48.206;16.340;2022-08-25T06:59:15;15.65;;;9.50;;
16330;SDS011;8275;48.206;16.340;2022-08-25T07:01:44;15.80;;;9.38;;
16330;SDS011;8275;48.206;16.340;2022-08-25T07:04:15;10.32;;;8.43;;
16330;SDS011;8275;48.206;16.340;2022-08-25T07:06:43;12.00;;;8.80;;
16330;SDS011;8275;48.206;16.340;2022-08-25T07:09:12;12.85;;;8.27;;
16330;SDS011;8275;48.206;16.340;2022-08-25T07:11:42;22.67;;;10.18;;
16330;SDS011;8275;48.206;16.340;2022-08-25T07:14:14;11.05;;;9.00;;
16330;SDS011;8275;48.206;16.340;2022-08-25T07:16:43;13.25;;;9.27;;
16330;SDS011;8275;48.206;16.340;2022-08-25T07:19:15;10.45;;;8.38;;
16330;SDS011;8275;48.206;16.340;2022-08-25T07:21:47;10.60;;;9.50;;
16330;SDS011;8275;48.206;16.340;2022-08-25T07:24:20;11.40;;;10.27;;
16330;SDS011;8275;48.206;16.340;2022-08-25T07:26:49;16.08;;;9.80;;
16330;SDS011;8275;48.206;16.340;2022-08-25T07:29:20;16.15;;;10.20;;
16330;SDS011;8275;48.206;16.340;2022-08-25T07:31:58;12.27;;;10.10;;
16330;SDS011;8275;48.206;16.340;2022-08-25T07:34:27;10.82;;;8.65;;
16330;SDS011;8275;48.206;16.340;2022-08-25T07:37:35;8.88;;;8.05;;
16330;SDS011;8275;48.206;16.340;2022-08-25T07:40:16;14.82;;;11.10;;
16330;SDS011;8275;48.206;16.340;2022-08-25T07:42:48;18.85;;;10.07;;
16330;SDS011;8275;48.206;16.340;2022-08-25T07:45:19;11.80;;;10.05;;
16330;SDS011;8275;48.206;16.340;2022-08-25T07:47:55;11.13;;;10.00;;
16330;SDS011;8275;48.206;16.340;2022-08-25T07:50:25;12.48;;;9.15;;
16330;SDS011;8275;48.206;16.340;2022-08-25T07:52:56;13.90;;;11.77;;
16330;SDS011;8275;48.206;16.340;2022-08-25T07:55:26;12.88;;;10.85;;
16330;SDS011;8275;48.206;16.340;2022-08-25T07:57:55;13.35;;;10.57;;
16330;SDS011;8275;48.206;16.340;2022-08-25T08:00:28;10.43;;;9.43;;
16330;SDS011;8275;48.206;16.340;2022-08-25T08:03:04;14.27;;;10.88;;
16330;SDS011;8275;48.206;16.340;2022-08-25T08:05:49;15.82;;;9.57;;
16330;SDS011;8275;48.206;16.340;2022-08-25T08:08:17;14.98;;;8.85;;
16330;SDS011;8275;48.206;16.340;2022-08-25T08:10:46;9.52;;;8.43;;
16330;SDS011;8275;48.206;16.340;2022-08-25T08:13:31;14.60;;;10.40;;
16330;SDS011;8275;48.206;16.340;2022-08-25T08:16:08;15.60;;;11.35;;
16330;SDS011;8275;48.206;16.340;2022-08-25T08:18:38;9.50;;;8.57;;
16330;SDS011;8275;48.206;16.340;2022-08-25T08:21:09;12.45;;;8.68;;
16330;SDS011;8275;48.206;16.340;2022-08-25T08:23:45;11.07;;;9.90;;
16330;SDS011;8275;48.206;16.340;2022-08-25T08:26:14;11.60;;;9.90;;
16330;SDS011;8275;48.206;16.340;2022-08-25T08:28:44;12.27;;;9.82;;
16330;SDS011;8275;48.206;16.340;2022-08-25T08:31:19;13.40;;;10.20;;
16330;SDS011;8275;48.206;16.340;2022-08-25T08:33:52;16.45;;;9.52;;
16330;SDS011;8275;48.206;16.340;2022-08-25T08:36:23;14.82;;;11.00;;
16330;SDS011;8275;48.206;16.340;2022-08-25T08:38:52;11.65;;;9.23;;
16330;SDS011;8275;48.206;16.340;2022-08-25T08:41:28;11.68;;;8.35;;
16330;SDS011;8275;48.206;16.340;2022-08-25T08:44:40;10.65;;;8.48;;
16330;SDS011;8275;48.206;16.340;2022-08-25T08:47:31;15.57;;;9.82;;
16330;SDS011;8275;48.206;16.340;2022-08-25T08:50:17;10.05;;;9.07;;
16330;SDS011;8275;48.206;16.340;2022-08-25T08:52:59;10.30;;;9.38;;
16330;SDS011;8275;48.206;16.340;2022-08-25T08:55:36;10.82;;;9.70;;
16330;SDS011;8275;48.206;16.340;2022-08-25T08:58:10;33.88;;;11.00;;
16330;SDS011;8275;48.206;16.340;2022-08-25T09:00:52;14.82;;;9.98;;
16330;SDS011;8275;48.206;16.340;2022-08-25T09:03:30;10.20;;;8.82;;
16330;SDS011;8275;48.206;16.340;2022-08-25T09:06:06;11.15;;;8.80;;
16330;SDS011;8275;48.206;16.340;2022-08-25T09:08:40;10.55;;;8.68;;
16330;SDS011;8275;48.206;16.340;2022-08-25T09:11:12;11.15;;;9.82;;
16330;SDS011;8275;48.206;16.340;2022-08-25T09:14:04;15.90;;;9.63;;
16330;SDS011;8275;48.206;16.340;2022-08-25T09:16:57;11.90;;;9.43;;
16330;SDS011;8275;48.206;16.340;2022-08-25T09:19:38;14.82;;;9.95;;
16330;SDS011;8275;48.206;16.340;2022-08-25T09:22:46;10.88;;;8.93;;
16330;SDS011;8275;48.206;16.340;2022-08-25T09:25:27;10.98;;;9.75;;
16330;SDS011;8275;48.206;16.340;2022-08-25T09:28:19;10.90;;;8.75;;
16330;SDS011;8275;48.206;16.340;2022-08-25T09:30:57;9.98;;;9.02;;
16330;SDS011;8275;48.206;16.340;2022-08-25T09:33:30;12.30;;;8.35;;
16330;SDS011;8275;48.206;16.340;2022-08-25T09:36:02;10.90;;;7.75;;
16330;SDS011;8275;48.206;16.340;2022-08-25T09:38:34;11.68;;;8.85;;
16330;SDS011;8275;48.206;16.340;2022-08-25T09:41:03;9.60;;;8.70;;
16330;SDS011;8275;48.206;16.340;2022-08-25T09:43:34;20.90;;;9.32;;
16330;SDS011;8275;48.206;16.340;2022-08-25T09:46:10;10.50;;;8.15;;
16330;SDS011;8275;48.206;16.340;2022-08-25T09:48:46;12.00;;;9.48;;
16330;SDS011;8275;48.206;16.340;2022-08-25T09:51:24;14.13;;;7.25;;
16330;SDS011;8275;48.206;16.340;2022-08-25T09:54:15;8.80;;;8.00;;
16330;SDS011;8275;48.206;16.340;2022-08-25T09:57:07;9.07;;;7.43;;
16330;SDS011;8275;48.206;16.340;2022-08-25T09:59:35;10.63;;;7.30;;
16330;SDS011;8275;48.206;16.340;2022-08-25T10:02:04;8.50;;;7.57;;
16330;SDS011;8275;48.206;16.340;2022-08-25T10:04:52;9.38;;;8.48;;
16330;SDS011;8275;48.206;16.340;2022-08-25T10:07:25;9.10;;;8.32;;
16330;SDS011;8275;48.206;16.340;2022-08-25T10:09:58;8.48;;;7.63;;
16330;SDS011;8275;48.206;16.340;2022-08-25T10:12:28;9.10;;;8.20;;
16330;SDS011;8275;48.206;16.340;2022-08-25T10:15:14;10.82;;;8.57;;
16330;SDS011;8275;48.206;16.340;2022-08-25T10:17:55;10.00;;;8.23;;
16330;SDS011;8275;48.206;16.340;2022-08-25T10:20:59;9.43;;;7.22;;
16330;SDS011;8275;48.206;16.340;2022-08-25T10:23:35;10.98;;;8.57;;
16330;SDS011;8275;48.206;16.340;2022-08-25T10:26:12;9.00;;;7.70;;
16330;SDS011;8275;48.206;16.340;2022-08-25T10:29:05;12.32;;;7.97;;
16330;SDS011;8275;48.206;16.340;2022-08-25T10:31:58;9.40;;;7.10;;
16330;SDS011;8275;48.206;16.340;2022-08-25T10:34:40;8.82;;;6.95;;
16330;SDS011;8275;48.206;16.340;2022-08-25T10:37:19;7.10;;;6.40;;
16330;SDS011;8275;48.206;16.340;2022-08-25T10:40:03;9.10;;;6.30;;
16330;SDS011;8275;48.206;16.340;2022-08-25T10:42:44;7.72;;;6.93;;
16330;SDS011;8275;48.206;16.340;2022-08-25T10:45:34;11.88;;;7.60;;
16330;SDS011;8275;48.206;16.340;2022-08-25T10:48:16;7.88;;;7.07;;
16330;SDS011;8275;48.206;16.340;2022-08-25T10:51:42;7.25;;;6.57;;
16330;SDS011;8275;48.206;16.340;2022-08-25T10:57:16;8.05;;;6.50;;
16330;SDS011;8275;48.206;16.340;2022-08-25T10:59:59;7.38;;;6.70;;
16330;SDS011;8275;48.206;16.340;2022-08-25T11:05:44;8.63;;;6.30;;
16330;SDS011;8275;48.206;16.340;2022-08-25T11:08:19;7.43;;;5.80;;
16330;SDS011;8275;48.206;16.340;2022-08-25T11:11:01;7.32;;;6.63;;
16330;SDS011;8275;48.206;16.340;2022-08-25T11:13:40;9.90;;;6.57;;
16330;SDS011;8275;48.206;16.340;2022-08-25T11:16:14;9.38;;;7.00;;
16330;SDS011;8275;48.206;16.340;2022-08-25T11:18:49;10.57;;;7.20;;
16330;SDS011;8275;48.206;16.340;2022-08-25T11:21:25;11.07;;;6.72;;
16330;SDS011;8275;48.206;16.340;2022-08-25T11:24:06;9.23;;;8.35;;
16330;SDS011;8275;48.206;16.340;2022-08-25T11:26:54;8.75;;;6.70;;
16330;SDS011;8275;48.206;16.340;2022-08-25T11:29:27;9.10;;;6.65;;
16330;SDS011;8275;48.206;16.340;2022-08-25T11:32:02;9.88;;;7.45;;
16330;SDS011;8275;48.206;16.340;2022-08-25T11:34:32;8.55;;;7.15;;
16330;SDS011;8275;48.206;16.340;2022-08-25T11:37:12;10.65;;;8.25;;
16330;SDS011;8275;48.206;16.340;2022-08-25T11:39:56;7.22;;;6.63;;
16330;SDS011;8275;48.206;16.340;2022-08-25T11:42:49;12.40;;;6.45;;
16330;SDS011;8275;48.206;16.340;2022-08-25T11:45:40;8.25;;;6.93;;
16330;SDS011;8275;48.206;16.340;2022-08-25T11:48:26;16.52;;;6.05;;
16330;SDS011;8275;48.206;16.340;2022-08-25T11:51:04;5.07;;;4.68;;
16330;SDS011;8275;48.206;16.340;2022-08-25T11:53:35;5.65;;;5.18;;
16330;SDS011;8275;48.206;16.340;2022-08-25T11:56:08;5.90;;;5.40;;
16330;SDS011;8275;48.206;16.340;2022-08-25T11:58:57;6.72;;;5.22;;
16330;SDS011;8275;48.206;16.340;2022-08-25T12:04:54;10.63;;;5.93;;
16330;SDS011;8275;48.206;16.340;2022-08-25T12:07:24;7.60;;;5.32;;
16330;SDS011;8275;48.206;16.340;2022-08-25T12:10:15;8.18;;;6.40;;
16330;SDS011;8275;48.206;16.340;2022-08-25T12:19:23;8.05;;;6.07;;
16330;SDS011;8275;48.206;16.340;2022-08-25T12:25:42;6.00;;;5.28;;
16330;SDS011;8275;48.206;16.340;2022-08-25T12:31:45;5.80;;;5.13;;
16330;SDS011;8275;48.206;16.340;2022-08-25T12:34:44;10.63;;;6.03;;
16330;SDS011;8275;48.206;16.340;2022-08-25T12:37:51;7.28;;;6.55;;
16330;SDS011;8275;48.206;16.340;2022-08-25T12:40:25;13.75;;;5.05;;
16330;SDS011;8275;48.206;16.340;2022-08-25T12:43:04;6.57;;;5.93;;
16330;SDS011;8275;48.206;16.340;2022-08-25T12:45:45;7.18;;;5.30;;
16330;SDS011;8275;48.206;16.340;2022-08-25T12:54:30;5.15;;;4.75;;
16330;SDS011;8275;48.206;16.340;2022-08-25T12:57:25;7.25;;;5.55;;
16330;SDS011;8275;48.206;16.340;2022-08-25T13:00:13;6.15;;;4.88;;
16330;SDS011;8275;48.206;16.340;2022-08-25T13:03:00;8.70;;;5.30;;
16330;SDS011;8275;48.206;16.340;2022-08-25T13:05:54;5.05;;;4.63;;
16330;SDS011;8275;48.206;16.340;2022-08-25T13:09:13;7.05;;;5.95;;
16330;SDS011;8275;48.206;16.340;2022-08-25T13:12:29;6.47;;;4.50;;
16330;SDS011;8275;48.206;16.340;2022-08-25T13:15:03;6.63;;;5.93;;
16330;SDS011;8275;48.206;16.340;2022-08-25T13:17:33;6.53;;;5.65;;
16330;SDS011;8275;48.206;16.340;2022-08-25T13:20:12;6.78;;;4.65;;
16330;SDS011;8275;48.206;16.340;2022-08-25T13:22:45;5.30;;;4.80;;
16330;SDS011;8275;48.206;16.340;2022-08-25T13:25:24;5.60;;;4.55;;
16330;SDS011;8275;48.206;16.340;2022-08-25T13:27:59;5.55;;;4.60;;
16330;SDS011;8275;48.206;16.340;2022-08-25T13:30:36;5.32;;;4.28;;
16330;SDS011;8275;48.206;16.340;2022-08-25T13:33:15;4.85;;;4.20;;
16330;SDS011;8275;48.206;16.340;2022-08-25T13:35:47;5.38;;;4.85;;
16330;SDS011;8275;48.206;16.340;2022-08-25T13:38:39;11.32;;;5.90;;
16330;SDS011;8275;48.206;16.340;2022-08-25T13:41:16;7.35;;;4.68;;
16330;SDS011;8275;48.206;16.340;2022-08-25T13:43:55;4.82;;;4.00;;
16330;SDS011;8275;48.206;16.340;2022-08-25T13:46:27;4.78;;;3.72;;
16330;SDS011;8275;48.206;16.340;2022-08-25T13:49:01;4.85;;;4.35;;
16330;SDS011;8275;48.206;16.340;2022-08-25T13:51:34;4.80;;;4.13;;
16330;SDS011;8275;48.206;16.340;2022-08-25T13:54:04;7.05;;;4.18;;
16330;SDS011;8275;48.206;16.340;2022-08-25T13:56:39;9.90;;;4.55;;
16330;SDS011;8275;48.206;16.340;2022-08-25T13:59:17;5.22;;;4.60;;
16330;SDS011;8275;48.206;16.340;2022-08-25T14:01:52;11.00;;;4.60;;
16330;SDS011;8275;48.206;16.340;2022-08-25T14:04:23;4.85;;;4.40;;
16330;SDS011;8275;48.206;16.340;2022-08-25T14:07:23;4.25;;;3.20;;
16330;SDS011;8275;48.206;16.340;2022-08-25T14:10:00;5.32;;;3.95;;
16330;SDS011;8275;48.206;16.340;2022-08-25T14:12:35;7.07;;;5.03;;
16330;SDS011;8275;48.206;16.340;2022-08-25T14:15:11;4.15;;;3.80;;
16330;SDS011;8275;48.206;16.340;2022-08-25T14:17:59;4.93;;;3.80;;
16330;SDS011;8275;48.206;16.340;2022-08-25T14:20:33;5.72;;;3.88;;
16330;SDS011;8275;48.206;16.340;2022-08-25T14:23:07;3.88;;;3.60;;
16330;SDS011;8275;48.206;16.340;2022-08-25T14:25:44;5.65;;;5.15;;
16330;SDS011;8275;48.206;16.340;2022-08-25T14:28:14;7.43;;;4.28;;
16330;SDS011;8275;48.206;16.340;2022-08-25T14:30:47;5.28;;;4.80;;
16330;SDS011;8275;48.206;16.340;2022-08-25T14:33:20;4.50;;;3.63;;
16330;SDS011;8275;48.206;16.340;2022-08-25T14:35:51;5.10;;;4.63;;
16330;SDS011;8275;48.206;16.340;2022-08-25T14:38:22;3.83;;;3.20;;
16330;SDS011;8275;48.206;16.340;2022-08-25T14:40:51;3.72;;;3.38;;
16330;SDS011;8275;48.206;16.340;2022-08-25T14:43:25;5.90;;;4.35;;
16330;SDS011;8275;48.206;16.340;2022-08-25T14:45:57;8.23;;;4.30;;
16330;SDS011;8275;48.206;16.340;2022-08-25T14:48:29;4.63;;;3.42;;
16330;SDS011;8275;48.206;16.340;2022-08-25T14:51:02;5.75;;;3.67;;
16330;SDS011;8275;48.206;16.340;2022-08-25T14:53:31;5.30;;;4.25;;
16330;SDS011;8275;48.206;16.340;2022-08-25T14:56:00;4.13;;;3.83;;
16330;SDS011;8275;48.206;16.340;2022-08-25T14:58:37;4.78;;;4.32;;
16330;SDS011;8275;48.206;16.340;2022-08-25T15:01:17;5.88;;;3.88;;
16330;SDS011;8275;48.206;16.340;2022-08-25T15:03:54;9.07;;;3.47;;
16330;SDS011;8275;48.206;16.340;2022-08-25T15:06:28;4.40;;;4.10;;
16330;SDS011;8275;48.206;16.340;2022-08-25T15:08:57;4.30;;;3.70;;
16330;SDS011;8275;48.206;16.340;2022-08-25T15:11:34;3.55;;;3.28;;
16330;SDS011;8275;48.206;16.340;2022-08-25T15:14:08;4.00;;;3.63;;
16330;SDS011;8275;48.206;16.340;2022-08-25T15:16:38;3.65;;;3.35;;
16330;SDS011;8275;48.206;16.340;2022-08-25T15:19:11;7.60;;;4.20;;
16330;SDS011;8275;48.206;16.340;2022-08-25T15:21:41;4.20;;;3.60;;
16330;SDS011;8275;48.206;16.340;2022-08-25T15:24:12;4.18;;;3.78;;
16330;SDS011;8275;48.206;16.340;2022-08-25T15:26:43;5.10;;;3.60;;
16330;SDS011;8275;48.206;16.340;2022-08-25T15:29:23;5.40;;;3.40;;
16330;SDS011;8275;48.206;16.340;2022-08-25T15:31:55;6.43;;;3.65;;
16330;SDS011;8275;48.206;16.340;2022-08-25T15:34:25;4.25;;;3.85;;
16330;SDS011;8275;48.206;16.340;2022-08-25T15:36:53;3.10;;;2.90;;
16330;SDS011;8275;48.206;16.340;2022-08-25T15:39:24;4.22;;;3.00;;
16330;SDS011;8275;48.206;16.340;2022-08-25T15:41:52;3.17;;;2.90;;
16330;SDS011;8275;48.206;16.340;2022-08-25T15:44:23;3.50;;;3.20;;
16330;SDS011;8275;48.206;16.340;2022-08-25T15:46:55;4.20;;;3.80;;
16330;SDS011;8275;48.206;16.340;2022-08-25T15:49:26;5.45;;;4.10;;